Time;durP1;ratioP1;P1;durP2;ratioP2;P2;SDS_P1;SDS_P2;PMS_P1;PMS_P2;Temp;Humidity;BMP_temperature;BMP_pressure;BME280_temperature;BME280_humidity;BME280_pressure;Samples;Min_cycle;Max_cycle;Signal;HPM_P1;HPM_P2
2021/10/28 00:12:12;;;;;;;12.52;4.32;;;;;;;;;;4956524;28;20079;-87
2021/10/28 00:12:52;;;;;;;9.63;3.97;;;;;;;;;;4959503;28;20137;-88
2021/10/28 00:15:27;;;;;;;11.85;4.55;;;;;;;;;;4946546;28;20065;-85
2021/10/28 00:20:34;;;;;;;13.65;4.78;;;;;;;;;;4982480;28;20056;-85
2021/10/28 00:23:01;;;;;;;12.52;3.85;;;;;;;;;;4996124;28;20034;-85
2021/10/28 00:25:28;;;;;;;12.23;3.85;;;;;;;;;;4983897;28;20057;-85
2021/10/28 00:27:55;;;;;;;11.35;3.65;;;;;;;;;;4983136;28;20516;-85
2021/10/28 00:30:21;;;;;;;10.00;3.83;;;;;;;;;;4996661;28;20139;-84
2021/10/28 00:32:48;;;;;;;10.30;3.60;;;;;;;;;;4980932;28;20128;-84
2021/10/28 00:35:14;;;;;;;12.75;3.85;;;;;;;;;;4981809;28;20041;-84
2021/10/28 00:37:41;;;;;;;;;;;;;;;;;;4980821;28;20898;-84
2021/10/28 00:40:08;;;;;;;11.70;3.67;;;;;;;;;;5004080;28;20328;-85
2021/10/28 00:42:36;;;;;;;10.73;3.58;;;;;;;;;;4993002;28;20033;-84
2021/10/28 00:45:02;;;;;;;9.70;2.70;;;;;;;;;;4986891;28;20029;-83
2021/10/28 00:47:33;;;;;;;;;;;;;;;;;;4998243;28;20075;-84
2021/10/28 00:50:00;;;;;;;11.23;3.35;;;;;;;;;;4989930;28;19913;-84
2021/10/28 00:52:26;;;;;;;10.77;3.40;;;;;;;;;;5001827;28;20021;-84
2021/10/28 00:54:52;;;;;;;8.93;3.15;;;;;;;;;;4990847;28;20041;-85
2021/10/28 00:57:19;;;;;;;9.95;2.90;;;;;;;;;;4984837;28;20096;-85
2021/10/28 00:59:46;;;;;;;9.82;3.03;;;;;;;;;;4994076;28;20045;-84
2021/10/28 01:02:14;;;;;;;9.50;3.08;;;;;;;;;;4995398;28;20661;-85
2021/10/28 01:04:40;;;;;;;10.63;3.50;;;;;;;;;;4997291;28;20037;-85
2021/10/28 01:07:06;;;;;;;9.43;3.17;;;;;;;;;;4996094;28;20053;-85
2021/10/28 01:09:32;;;;;;;14.05;3.50;;;;;;;;;;4986183;28;20630;-84
2021/10/28 01:11:58;;;;;;;9.80;3.15;;;;;;;;;;4999432;28;20095;-84
2021/10/28 01:14:25;;;;;;;10.23;3.15;;;;;;;;;;4982588;28;20037;-83
2021/10/28 01:16:51;;;;;;;;;;;;;;;;;;5000064;28;20061;-84
2021/10/28 01:19:21;;;;;;;10.90;3.17;;;;;;;;;;5000845;28;19939;-84
2021/10/28 01:21:47;;;;;;;9.32;3.22;;;;;;;;;;4978052;28;20068;-84
2021/10/28 01:24:13;;;;;;;13.27;3.38;;;;;;;;;;5003435;28;20176;-84
2021/10/28 01:26:39;;;;;;;;;;;;;;;;;;4992955;28;20117;-84
2021/10/28 01:29:05;;;;;;;13.55;3.50;;;;;;;;;;5002797;28;20371;-86
2021/10/28 01:31:32;;;;;;;9.60;3.15;;;;;;;;;;4989165;28;20017;-86
2021/10/28 01:33:59;;;;;;;12.23;3.55;;;;;;;;;;4978989;28;20461;-85
2021/10/28 01:36:26;;;;;;;10.68;3.28;;;;;;;;;;5006449;28;20370;-85
2021/10/28 01:38:53;;;;;;;10.93;3.47;;;;;;;;;;4980170;28;20058;-85
2021/10/28 01:41:20;;;;;;;9.32;3.03;;;;;;;;;;4986343;28;20909;-85
2021/10/28 01:43:46;;;;;;;12.30;3.45;;;;;;;;;;4998931;28;20077;-85
2021/10/28 01:46:12;;;;;;;7.97;3.10;;;;;;;;;;5000021;28;20022;-85
2021/10/28 01:48:40;;;;;;;11.95;3.33;;;;;;;;;;4980588;28;20073;-85
2021/10/28 01:51:07;;;;;;;10.68;3.50;;;;;;;;;;4996626;28;20083;-85
2021/10/28 01:53:35;;;;;;;11.48;3.00;;;;;;;;;;5002089;28;20057;-85
2021/10/28 01:56:01;;;;;;;10.13;3.38;;;;;;;;;;4996251;28;20032;-85
2021/10/28 01:58:28;;;;;;;8.90;2.97;;;;;;;;;;5003296;28;20111;-85
2021/10/28 02:00:54;;;;;;;9.48;3.70;;;;;;;;;;4986071;28;20535;-86
2021/10/28 02:03:21;;;;;;;9.38;3.38;;;;;;;;;;5003965;28;20064;-85
2021/10/28 02:05:48;;;;;;;11.38;3.58;;;;;;;;;;5001439;28;20065;-86
2021/10/28 02:08:14;;;;;;;9.75;3.15;;;;;;;;;;5003142;28;20083;-86
2021/10/28 02:10:41;;;;;;;9.45;3.15;;;;;;;;;;5000755;28;20491;-85
2021/10/28 02:13:07;;;;;;;8.32;3.05;;;;;;;;;;5006737;28;20038;-88
2021/10/28 02:15:34;;;;;;;11.18;3.38;;;;;;;;;;5004495;28;20034;-85
2021/10/28 02:18:00;;;;;;;9.13;3.17;;;;;;;;;;5001342;28;20784;-85
2021/10/28 02:20:26;;;;;;;9.77;3.42;;;;;;;;;;5001235;28;20033;-85
2021/10/28 02:22:52;;;;;;;9.30;3.28;;;;;;;;;;5000240;28;20575;-85
2021/10/28 02:25:18;;;;;;;12.18;3.50;;;;;;;;;;4994110;28;20088;-85
2021/10/28 02:27:46;;;;;;;11.50;3.75;;;;;;;;;;5000570;28;20030;-85
2021/10/28 02:30:14;;;;;;;7.20;2.80;;;;;;;;;;5008399;28;20057;-85
2021/10/28 02:32:41;;;;;;;9.10;3.08;;;;;;;;;;4983860;28;20034;-86
2021/10/28 02:35:07;;;;;;;10.43;2.92;;;;;;;;;;4986700;28;20056;-86
2021/10/28 02:37:33;;;;;;;11.45;3.40;;;;;;;;;;5010010;28;20897;-85
2021/10/28 02:40:00;;;;;;;9.38;2.83;;;;;;;;;;5002287;28;20159;-86
2021/10/28 02:42:26;;;;;;;9.15;3.13;;;;;;;;;;5008684;28;20038;-86
2021/10/28 02:44:52;;;;;;;;;;;;;;;;;;4989997;28;20041;-87
2021/10/28 02:47:19;;;;;;;9.50;3.60;;;;;;;;;;5004746;28;19932;-86
2021/10/28 02:49:46;;;;;;;8.75;3.53;;;;;;;;;;5007069;28;20032;-85
2021/10/28 02:52:12;;;;;;;11.00;3.00;;;;;;;;;;5007228;28;20036;-85
2021/10/28 02:54:38;;;;;;;8.13;3.13;;;;;;;;;;4983149;28;20037;-85
2021/10/28 02:57:06;;;;;;;10.68;3.47;;;;;;;;;;5009982;28;20613;-84
2021/10/28 02:59:33;;;;;;;10.88;3.55;;;;;;;;;;5000376;28;20115;-84
2021/10/28 03:01:59;;;;;;;;;;;;;;;;;;5005217;28;20034;-84
2021/10/28 03:04:25;;;;;;;12.25;3.85;;;;;;;;;;5004806;28;20410;-83
2021/10/28 03:06:52;;;;;;;;;;;;;;;;;;4988129;28;20042;-84
2021/10/28 03:09:20;;;;;;;8.52;3.47;;;;;;;;;;5003356;28;19956;-85
2021/10/28 03:11:48;;;;;;;10.93;3.72;;;;;;;;;;4979412;28;20160;-84
2021/10/28 03:14:18;;;;;;;8.90;3.28;;;;;;;;;;5006299;28;20030;-84
2021/10/28 03:16:59;;;;;;;10.07;3.67;;;;;;;;;;4998673;28;20029;-84
2021/10/28 03:27:22;;;;;;;10.52;3.53;;;;;;;;;;4995506;28;20125;-83
2021/10/28 03:29:49;;;;;;;11.63;3.78;;;;;;;;;;4998740;28;20120;-84
2021/10/28 03:32:15;;;;;;;10.75;3.63;;;;;;;;;;4973256;28;20037;-84
2021/10/28 03:34:43;;;;;;;8.90;3.20;;;;;;;;;;4996865;28;20644;-84
2021/10/28 03:37:15;;;;;;;12.02;3.45;;;;;;;;;;4985862;28;20045;-84
2021/10/28 03:40:06;;;;;;;10.73;3.17;;;;;;;;;;4992064;28;20041;-83
2021/10/28 04:31:06;;;;;;;9.75;3.22;;;;;;;;;;4853155;29;20221;-85
2021/10/28 04:33:33;;;;;;;12.48;3.70;;;;;;;;;;4835734;29;20045;-85
2021/10/28 04:36:02;;;;;;;10.95;3.90;;;;;;;;;;4846148;29;20861;-86
2021/10/28 04:38:29;;;;;;;10.35;4.00;;;;;;;;;;4854021;29;20045;-86
2021/10/28 04:40:55;;;;;;;9.48;3.80;;;;;;;;;;4837567;29;20045;-85
2021/10/28 04:43:21;;;;;;;8.93;3.60;;;;;;;;;;4899522;28;20541;-85
2021/10/28 04:45:48;;;;;;;12.10;4.22;;;;;;;;;;4924455;28;20041;-85
2021/10/28 04:48:14;;;;;;;9.02;3.40;;;;;;;;;;4997389;28;20685;-86
2021/10/28 04:50:41;;;;;;;9.07;2.90;;;;;;;;;;4983727;28;20033;-87
2021/10/28 04:53:07;;;;;;;7.95;3.13;;;;;;;;;;5004120;28;20294;-86
2021/10/28 04:55:33;;;;;;;10.50;3.72;;;;;;;;;;4999094;28;20022;-86
2021/10/28 04:57:59;;;;;;;12.10;3.85;;;;;;;;;;5004238;28;20068;-87
2021/10/28 05:00:26;;;;;;;12.57;3.42;;;;;;;;;;4986290;28;20041;-84
2021/10/28 05:02:52;;;;;;;13.07;3.28;;;;;;;;;;4995892;28;20117;-84
2021/10/28 05:05:18;;;;;;;10.70;3.42;;;;;;;;;;4991598;28;20033;-88
2021/10/28 05:07:44;;;;;;;;;;;;;;;;;;4999870;28;20111;-85
2021/10/28 05:10:10;;;;;;;8.80;3.47;;;;;;;;;;5005285;28;20035;-86
2021/10/28 05:12:37;;;;;;;8.85;3.47;;;;;;;;;;4995229;28;20041;-84
2021/10/28 05:15:03;;;;;;;;;;;;;;;;;;5002957;28;20128;-83
2021/10/28 05:17:29;;;;;;;11.50;3.50;;;;;;;;;;4984695;28;20007;-84
2021/10/28 05:19:55;;;;;;;8.40;3.38;;;;;;;;;;4977133;28;20037;-85
2021/10/28 05:22:21;;;;;;;11.88;3.75;;;;;;;;;;4987421;28;20116;-85
2021/10/28 05:24:48;;;;;;;10.85;3.55;;;;;;;;;;4988899;28;20025;-85
2021/10/28 05:27:14;;;;;;;;;;;;;;;;;;5006591;28;20054;-85
2021/10/28 05:29:40;;;;;;;10.38;4.05;;;;;;;;;;5000155;28;19941;-88
2021/10/28 05:32:07;;;;;;;11.65;4.03;;;;;;;;;;5005825;28;21279;-86
2021/10/28 05:34:34;;;;;;;12.95;4.97;;;;;;;;;;5007589;28;20018;-86
2021/10/28 05:37:00;;;;;;;11.82;4.40;;;;;;;;;;4995747;28;20034;-85
2021/10/28 05:39:26;;;;;;;12.73;4.32;;;;;;;;;;5003652;28;20041;-85
2021/10/28 05:41:53;;;;;;;13.82;4.22;;;;;;;;;;4997185;28;20053;-78
2021/10/28 05:44:19;;;;;;;12.15;4.30;;;;;;;;;;4999022;28;20579;-79
2021/10/28 05:46:45;;;;;;;10.27;4.15;;;;;;;;;;4995755;28;20029;-80
2021/10/28 05:49:11;;;;;;;13.73;4.55;;;;;;;;;;4993461;28;20046;-80
2021/10/28 05:51:38;;;;;;;11.40;4.18;;;;;;;;;;4978880;28;20048;-79
2021/10/28 05:54:05;;;;;;;11.65;4.07;;;;;;;;;;4980513;28;20061;-80
2021/10/28 05:56:31;;;;;;;10.90;4.43;;;;;;;;;;4986632;28;20041;-79
2021/10/28 05:58:57;;;;;;;10.68;3.95;;;;;;;;;;4969519;28;21095;-79
2021/10/28 06:01:23;;;;;;;10.52;4.47;;;;;;;;;;4986426;28;20042;-79
2021/10/28 06:03:50;;;;;;;10.77;4.00;;;;;;;;;;4987218;28;20037;-79
2021/10/28 06:06:16;;;;;;;9.73;3.97;;;;;;;;;;4999003;28;20372;-78
2021/10/28 06:08:42;;;;;;;10.23;4.28;;;;;;;;;;4987220;28;20030;-78
2021/10/28 06:11:08;;;;;;;11.30;3.95;;;;;;;;;;5003420;28;20025;-78
2021/10/28 06:13:42;;;;;;;13.30;4.03;;;;;;;;;;4995999;28;20018;-78
2021/10/28 06:16:09;;;;;;;9.65;3.80;;;;;;;;;;5000333;28;20033;-78
2021/10/28 06:21:02;;;;;;;14.85;4.70;;;;;;;;;;4995821;28;20045;-78
2021/10/28 06:23:28;;;;;;;10.95;4.38;;;;;;;;;;5002970;28;20091;-78
2021/10/28 06:25:54;;;;;;;9.68;4.13;;;;;;;;;;4991605;28;20045;-78
2021/10/28 06:28:20;;;;;;;11.52;4.10;;;;;;;;;;4983259;28;20033;-78
2021/10/28 06:30:46;;;;;;;11.65;4.10;;;;;;;;;;4993432;28;20083;-79
2021/10/28 06:33:19;;;;;;;13.10;4.72;;;;;;;;;;4989533;28;20035;-79
2021/10/28 06:35:45;;;;;;;10.13;4.10;;;;;;;;;;4982063;28;20073;-80
2021/10/28 06:38:12;;;;;;;12.77;4.55;;;;;;;;;;4979047;28;20029;-78
2021/10/28 06:40:39;;;;;;;14.27;5.38;;;;;;;;;;4993172;28;20075;-79
2021/10/28 06:43:05;;;;;;;13.10;5.35;;;;;;;;;;4986224;28;20239;-78
2021/10/28 06:45:32;;;;;;;13.23;5.53;;;;;;;;;;4974699;28;20032;-77
2021/10/28 06:47:58;;;;;;;16.25;5.38;;;;;;;;;;4975562;28;20045;-78
2021/10/28 06:50:29;;;;;;;15.18;6.07;;;;;;;;;;5002652;28;20140;-80
2021/10/28 06:52:58;;;;;;;14.88;6.50;;;;;;;;;;4985944;28;20512;-78
2021/10/28 06:55:54;;;;;;;15.63;6.82;;;;;;;;;;5001666;28;20029;-78
2021/10/28 07:03:29;;;;;;;15.25;6.43;;;;;;;;;;5000877;28;20052;-78
2021/10/28 07:06:00;;;;;;;14.32;5.72;;;;;;;;;;4997762;28;20034;-78
2021/10/28 07:08:27;;;;;;;14.75;6.50;;;;;;;;;;5000342;28;20611;-79
2021/10/28 07:10:55;;;;;;;13.50;5.78;;;;;;;;;;5000793;28;20090;-79
2021/10/28 07:13:29;;;;;;;16.33;6.00;;;;;;;;;;4986027;28;20025;-79
2021/10/28 07:16:00;;;;;;;13.70;5.00;;;;;;;;;;4993505;28;21001;-79
2021/10/28 08:23:37;;;;;;;12.70;4.65;;;;;;;;;;4979010;28;21483;-79
2021/10/28 08:28:51;;;;;;;14.77;4.70;;;;;;;;;;4943470;28;20046;-78
2021/10/28 08:31:18;;;;;;;12.52;4.57;;;;;;;;;;4942545;28;20121;-78
2021/10/28 08:33:45;;;;;;;13.27;4.30;;;;;;;;;;4936514;28;20045;-78
2021/10/28 08:36:14;;;;;;;12.85;4.25;;;;;;;;;;4945943;28;20125;-79
2021/10/28 08:38:41;;;;;;;10.65;3.80;;;;;;;;;;4915706;28;20034;-79
2021/10/28 08:41:08;;;;;;;20.33;9.40;;;;;;;;;;4944096;28;20813;-78
2021/10/28 08:43:36;;;;;;;36.70;17.13;;;;;;;;;;4929760;28;20034;-79
2021/10/28 08:46:05;;;;;;;38.90;19.88;;;;;;;;;;4932547;28;20130;-78
2021/10/28 08:48:34;;;;;;;36.33;18.55;;;;;;;;;;4941540;28;20597;-79
2021/10/28 08:51:07;;;;;;;29.50;15.60;;;;;;;;;;4924305;28;20039;-78
2021/10/28 08:56:03;;;;;;;24.10;10.45;;;;;;;;;;4930735;28;20030;-78
2021/10/28 09:26:25;;;;;;;17.80;7.30;;;;;;;;;;4999385;28;20111;-80
2021/10/28 09:29:06;;;;;;;11.00;4.38;;;;;;;;;;4988621;28;20064;-79
2021/10/28 09:31:35;;;;;;;18.23;8.18;;;;;;;;;;4983882;28;20797;-78
2021/10/28 09:34:23;;;;;;;14.70;6.70;;;;;;;;;;4973151;28;20042;-80
2021/10/28 09:45:33;;;;;;;16.77;6.55;;;;;;;;;;4993016;28;20041;-78
2021/10/28 09:50:30;;;;;;;13.18;5.70;;;;;;;;;;5000663;28;20037;-79
2021/10/28 09:53:11;;;;;;;14.35;5.45;;;;;;;;;;4990458;28;20040;-78
2021/10/28 09:58:27;;;;;;;14.73;6.22;;;;;;;;;;5002280;28;20044;-79
2021/10/28 10:00:53;;;;;;;14.95;6.38;;;;;;;;;;4992300;28;20081;-79
2021/10/28 10:03:25;;;;;;;17.25;6.50;;;;;;;;;;5000187;28;20144;-79
2021/10/28 10:05:56;;;;;;;13.23;6.10;;;;;;;;;;4997650;28;20034;-79
2021/10/28 10:08:24;;;;;;;11.45;5.72;;;;;;;;;;4989722;28;20069;-79
2021/10/28 10:10:51;;;;;;;12.82;5.57;;;;;;;;;;4988636;28;20062;-79
2021/10/28 10:13:17;;;;;;;14.77;5.90;;;;;;;;;;4984330;28;20025;-79
2021/10/28 10:15:43;;;;;;;12.88;5.47;;;;;;;;;;4992978;28;20025;-79
2021/10/28 10:18:13;;;;;;;14.35;5.18;;;;;;;;;;5002626;28;20041;-78
2021/10/28 10:26:17;;;;;;;10.55;3.47;;;;;;;;;;4998971;28;20807;-79
2021/10/28 12:01:39;;;;;;;7.95;2.65;;;;;;;;;;4919011;29;20039;-92
2021/10/28 12:14:15;;;;;;;11.43;3.33;;;;;;;;;;4881216;29;20054;-86
2021/10/28 12:45:54;;;;;;;14.65;5.47;;;;;;;;;;4949673;28;20198;-83
2021/10/28 12:51:22;;;;;;;13.02;4.53;;;;;;;;;;4950955;28;21282;-83
2021/10/28 12:57:06;;;;;;;13.30;4.18;;;;;;;;;;4952490;28;20065;-83
2021/10/28 13:58:54;;;;;;;12.95;5.90;;;;;;;;;;5005106;28;20037;-85
2021/10/28 14:15:52;;;;;;;11.48;3.67;;;;;;;;;;5003778;28;20056;-84
2021/10/28 14:18:55;;;;;;;10.40;3.50;;;;;;;;;;5001344;28;20029;-87
2021/10/28 14:21:25;;;;;;;14.18;5.15;;;;;;;;;;5007974;28;20041;-86
2021/10/28 15:29:30;;;;;;;11.40;4.18;;;;;;;;;;4962707;28;20045;-85
2021/10/28 15:32:27;;;;;;;10.15;4.10;;;;;;;;;;4960144;28;20029;-87
2021/10/28 15:35:06;;;;;;;14.05;4.60;;;;;;;;;;4963161;28;20031;-86
2021/10/28 15:37:55;;;;;;;12.90;4.57;;;;;;;;;;4956973;28;20034;-86
2021/10/28 15:56:34;;;;;;;8.52;3.00;;;;;;;;;;4997426;28;20048;-86
2021/10/28 16:23:49;;;;;;;12.43;4.10;;;;;;;;;;4992616;28;20045;-85
2021/10/28 16:26:15;;;;;;;11.77;4.53;;;;;;;;;;5003616;28;20049;-85
2021/10/28 16:28:42;;;;;;;12.45;3.53;;;;;;;;;;5000974;28;20026;-86
2021/10/28 16:31:08;;;;;;;12.00;4.90;;;;;;;;;;4981206;28;20715;-86
2021/10/28 16:33:39;;;;;;;11.10;4.25;;;;;;;;;;5000212;28;20441;-84
2021/10/28 16:36:06;;;;;;;12.20;4.22;;;;;;;;;;4982534;28;20026;-85
2021/10/28 16:38:32;;;;;;;14.35;5.07;;;;;;;;;;4998149;28;20037;-85
2021/10/28 16:40:59;;;;;;;13.20;5.13;;;;;;;;;;4981529;28;20888;-85
2021/10/28 16:43:25;;;;;;;14.23;5.53;;;;;;;;;;4981917;28;20033;-85
2021/10/28 16:45:51;;;;;;;;;;;;;;;;;;4978857;28;20032;-85
2021/10/28 16:48:17;;;;;;;13.75;5.40;;;;;;;;;;5004580;28;19917;-84
2021/10/28 16:50:43;;;;;;;;;;;;;;;;;;4976818;28;20045;-84
2021/10/28 16:53:10;;;;;;;11.50;5.03;;;;;;;;;;5001895;28;19917;-84
2021/10/28 16:55:36;;;;;;;14.00;5.50;;;;;;;;;;5002088;28;20787;-84
2021/10/28 16:58:09;;;;;;;13.07;5.30;;;;;;;;;;4998694;28;20499;-86
2021/10/28 17:00:35;;;;;;;12.45;4.53;;;;;;;;;;5001217;28;20041;-85
2021/10/28 17:03:03;;;;;;;12.45;4.80;;;;;;;;;;4981874;28;20115;-85
2021/10/28 17:05:29;;;;;;;13.70;5.47;;;;;;;;;;5001441;28;20053;-85
2021/10/28 17:07:55;;;;;;;13.18;5.60;;;;;;;;;;4997058;28;20044;-86
2021/10/28 17:10:22;;;;;;;;;;;;;;;;;;4999500;28;20033;-85
2021/10/28 17:12:48;;;;;;;13.65;5.45;;;;;;;;;;4998223;28;19921;-87
2021/10/28 17:15:15;;;;;;;16.15;6.90;;;;;;;;;;4998602;28;20033;-86
2021/10/28 17:18:10;;;;;;;15.32;6.00;;;;;;;;;;4982128;28;20036;-85
2021/10/28 17:24:34;;;;;;;;;;;;;;;;;;;;;
2021/10/28 17:27:44;;;;;;;;;;;;;;;;;;;;;
2021/10/28 17:44:33;;;;;;;;;;;;;;;;;;;;;
2021/10/28 17:55:59;;;;;;;19.20;10.98;;;;;;;;;;5088010;27;20453;-83
2021/10/28 17:58:25;;;;;;;17.75;8.68;;;;;;;;;;5042422;28;20023;-83
2021/10/28 18:00:52;;;;;;;14.02;6.47;;;;;;;;;;5030398;28;20498;-83
2021/10/28 18:03:20;;;;;;;17.30;9.27;;;;;;;;;;5038242;28;20159;-82
2021/10/28 18:05:46;;;;;;;17.00;8.63;;;;;;;;;;5055561;28;20040;-81
2021/10/28 18:08:15;;;;;;;20.27;11.30;;;;;;;;;;5054980;28;20044;-85
2021/10/28 18:10:42;;;;;;;20.67;12.40;;;;;;;;;;5042402;28;20020;-81
2021/10/28 18:13:12;;;;;;;20.92;11.00;;;;;;;;;;5059708;28;20025;-82
2021/10/28 18:15:39;;;;;;;16.50;8.50;;;;;;;;;;5046902;28;20033;-81
2021/10/28 18:18:06;;;;;;;22.58;11.27;;;;;;;;;;5041984;28;20055;-82
2021/10/28 18:20:32;;;;;;;20.67;11.05;;;;;;;;;;5042041;28;20040;-83
2021/10/28 18:22:58;;;;;;;;;;;;;;;;;;5048520;28;20036;-84
2021/10/28 18:25:25;;;;;;;23.42;10.65;;;;;;;;;;5072299;28;19909;-82
2021/10/28 18:27:56;;;;;;;;;;;;;;;;;;5040279;28;20043;-83
2021/10/28 18:30:23;;;;;;;22.08;9.73;;;;;;;;;;5053585;28;19927;-82
2021/10/28 18:32:49;;;;;;;20.90;10.32;;;;;;;;;;5058347;28;20033;-82
2021/10/28 18:35:15;;;;;;;;;;;;;;;;;;5063690;28;20052;-82
2021/10/28 18:37:42;;;;;;;20.75;11.10;;;;;;;;;;5080327;28;19967;-84
2021/10/28 18:40:12;;;;;;;19.35;10.25;;;;;;;;;;5069653;28;20066;-82
2021/10/28 18:42:39;;;;;;;24.15;11.18;;;;;;;;;;5043373;28;20041;-86
2021/10/28 18:45:06;;;;;;;18.95;10.15;;;;;;;;;;5045253;28;20277;-83
2021/10/28 18:47:33;;;;;;;21.00;10.27;;;;;;;;;;5032991;28;20025;-85
2021/10/28 18:50:00;;;;;;;23.30;11.68;;;;;;;;;;5051019;28;20039;-84
2021/10/28 18:52:28;;;;;;;24.95;12.65;;;;;;;;;;5047696;28;20416;-83
2021/10/28 18:54:54;;;;;;;20.55;11.50;;;;;;;;;;5010035;28;20073;-82
2021/10/28 18:57:21;;;;;;;;;;;;;;;;;;5017312;28;20061;-82
2021/10/28 18:59:48;;;;;;;25.30;13.38;;;;;;;;;;5019852;28;19932;-82
2021/10/28 19:02:15;;;;;;;25.80;12.52;;;;;;;;;;5026188;28;20033;-82
2021/10/28 19:04:41;;;;;;;24.02;12.18;;;;;;;;;;5037460;28;20029;-83
2021/10/28 19:07:09;;;;;;;22.13;11.68;;;;;;;;;;5022230;28;20355;-83
2021/10/28 19:09:35;;;;;;;20.50;9.95;;;;;;;;;;5009371;28;20041;-82
2021/10/28 19:12:03;;;;;;;;;;;;;;;;;;5011384;28;20034;-83
2021/10/28 19:14:30;;;;;;;14.93;6.93;;;;;;;;;;5011489;28;19931;-84
2021/10/28 19:16:56;;;;;;;14.20;6.75;;;;;;;;;;5018865;28;20269;-83
2021/10/28 19:19:23;;;;;;;15.82;7.05;;;;;;;;;;5001987;28;20449;-82
2021/10/28 19:21:49;;;;;;;14.55;7.35;;;;;;;;;;5000993;28;20038;-82
2021/10/28 19:24:15;;;;;;;14.73;6.72;;;;;;;;;;5008979;28;20136;-83
2021/10/28 19:26:42;;;;;;;13.90;6.95;;;;;;;;;;5009426;28;20485;-83
2021/10/28 19:29:10;;;;;;;13.40;7.00;;;;;;;;;;5014755;28;20037;-84
2021/10/28 19:31:53;;;;;;;14.63;6.38;;;;;;;;;;5029807;28;20017;-82
2021/10/28 19:34:19;;;;;;;15.52;7.30;;;;;;;;;;5030857;28;20384;-83
2021/10/28 19:47:25;;;;;;;14.40;5.07;;;;;;;;;;5017793;28;20484;-82
2021/10/28 19:49:51;;;;;;;12.32;5.53;;;;;;;;;;5016636;28;20025;-82
2021/10/28 19:52:17;;;;;;;13.73;5.35;;;;;;;;;;5027413;28;20029;-82
2021/10/28 19:54:46;;;;;;;12.90;5.22;;;;;;;;;;5022656;28;20057;-84
2021/10/28 19:57:17;;;;;;;10.75;4.63;;;;;;;;;;5023725;28;20893;-85
2021/10/28 19:59:50;;;;;;;11.35;4.72;;;;;;;;;;5030112;28;20036;-83
2021/10/28 20:02:50;;;;;;;17.30;6.13;;;;;;;;;;5028237;28;20030;-84
2021/10/28 20:21:17;;;;;;;9.85;4.13;;;;;;;;;;4987027;28;20052;-88
2021/10/28 20:23:43;;;;;;;12.18;4.32;;;;;;;;;;4986311;28;20767;-87
2021/10/28 20:26:09;;;;;;;10.35;4.38;;;;;;;;;;4982367;28;20189;-84
2021/10/28 20:28:40;;;;;;;11.40;4.38;;;;;;;;;;4968911;28;20176;-85
2021/10/28 20:31:07;;;;;;;16.85;6.35;;;;;;;;;;5000603;28;20042;-83
2021/10/28 20:33:37;;;;;;;16.00;6.70;;;;;;;;;;4978617;28;20052;-84
2021/10/28 20:38:49;;;;;;;38.97;25.38;;;;;;;;;;4988287;28;20062;-83
2021/10/28 20:41:16;;;;;;;13.75;7.75;;;;;;;;;;4978331;28;20049;-85
2021/10/28 20:43:42;;;;;;;;;;;;;;;;;;4971379;28;20501;-83
2021/10/28 20:46:08;;;;;;;13.98;6.00;;;;;;;;;;4975771;28;19921;-82
2021/10/28 20:48:41;;;;;;;12.63;5.80;;;;;;;;;;4989956;28;20600;-82
2021/10/28 20:51:07;;;;;;;12.43;5.43;;;;;;;;;;4986607;28;20485;-83
2021/10/28 20:53:33;;;;;;;;;;;;;;;;;;4971435;28;20038;-82
2021/10/28 20:56:00;;;;;;;13.73;5.50;;;;;;;;;;5004035;28;19931;-82
2021/10/28 20:58:26;;;;;;;12.60;5.20;;;;;;;;;;5021277;28;20025;-82
2021/10/28 21:00:52;;;;;;;;;;;;;;;;;;5020372;28;20481;-81
2021/10/28 21:03:18;;;;;;;12.20;4.35;;;;;;;;;;5021612;28;19970;-84
2021/10/28 21:05:45;;;;;;;11.57;4.60;;;;;;;;;;5031090;28;21468;-85
2021/10/28 21:08:11;;;;;;;11.75;4.53;;;;;;;;;;5031055;28;20384;-84
2021/10/28 21:10:38;;;;;;;11.93;4.78;;;;;;;;;;5029592;28;20353;-85
2021/10/28 21:13:04;;;;;;;11.98;4.20;;;;;;;;;;5036225;28;20029;-85
2021/10/28 21:15:32;;;;;;;10.85;5.15;;;;;;;;;;5035119;28;20037;-83
2021/10/28 21:17:59;;;;;;;10.38;4.22;;;;;;;;;;5039509;28;20040;-82
2021/10/28 21:20:27;;;;;;;9.70;4.30;;;;;;;;;;5042955;28;20055;-85
2021/10/28 21:22:55;;;;;;;10.95;4.63;;;;;;;;;;5032410;28;20076;-85
2021/10/28 21:25:22;;;;;;;11.80;4.28;;;;;;;;;;5042270;28;20107;-87
2021/10/28 21:27:51;;;;;;;14.20;4.78;;;;;;;;;;5040446;28;20403;-84
2021/10/28 21:30:17;;;;;;;10.82;4.97;;;;;;;;;;5026159;28;20495;-83
2021/10/28 21:32:45;;;;;;;10.73;4.50;;;;;;;;;;5027502;28;20021;-85
2021/10/28 21:35:12;;;;;;;11.30;4.43;;;;;;;;;;5033274;28;20072;-83
2021/10/28 21:37:40;;;;;;;14.52;4.50;;;;;;;;;;5029442;28;20036;-84
2021/10/28 21:40:08;;;;;;;12.32;4.22;;;;;;;;;;5034856;28;20041;-84
2021/10/28 21:42:35;;;;;;;12.30;3.92;;;;;;;;;;5032199;28;20033;-83
2021/10/28 21:45:02;;;;;;;9.15;3.60;;;;;;;;;;5028148;28;20047;-82
2021/10/28 21:47:28;;;;;;;10.65;3.50;;;;;;;;;;5028283;28;20045;-84
2021/10/28 21:49:56;;;;;;;9.82;3.53;;;;;;;;;;5028316;28;20033;-85
2021/10/28 21:52:32;;;;;;;10.98;3.58;;;;;;;;;;5033256;28;20035;-82
2021/10/28 22:00:23;;;;;;;12.35;4.85;;;;;;;;;;5029881;28;20735;-85
2021/10/28 22:24:43;;;;;;;9.48;4.15;;;;;;;;;;5032537;28;20090;-86
2021/10/28 22:27:09;;;;;;;14.68;6.72;;;;;;;;;;5026283;28;20037;-87
2021/10/28 22:29:35;;;;;;;10.68;5.45;;;;;;;;;;5020171;28;20169;-84
2021/10/28 22:32:04;;;;;;;;;;;;;;;;;;5019712;28;20029;-85
2021/10/28 22:34:30;;;;;;;9.95;3.50;;;;;;;;;;5023704;28;19916;-87
2021/10/28 22:37:06;;;;;;;;;;;;;;;;;;5019388;28;21142;-85
2021/10/28 22:42:17;;;;;;;8.77;3.50;;;;;;;;;;5046946;28;20174;-86
2021/10/28 22:44:43;;;;;;;9.25;3.70;;;;;;;;;;5032853;28;20037;-86
2021/10/28 22:47:10;;;;;;;10.40;3.95;;;;;;;;;;5036819;28;20033;-83
2021/10/28 22:49:36;;;;;;;11.90;3.58;;;;;;;;;;5037421;28;20033;-83
2021/10/28 22:52:11;;;;;;;10.27;4.00;;;;;;;;;;5036686;28;20170;-84
2021/10/28 22:54:38;;;;;;;11.15;4.20;;;;;;;;;;5028973;28;20500;-86
2021/10/28 22:57:09;;;;;;;10.25;3.72;;;;;;;;;;5028058;28;20496;-86
2021/10/28 22:59:35;;;;;;;9.10;3.63;;;;;;;;;;5032338;28;20068;-86
2021/10/28 23:04:50;;;;;;;9.88;3.20;;;;;;;;;;5026486;28;20026;-83
2021/10/28 23:13:39;;;;;;;12.05;4.22;;;;;;;;;;5028282;28;20029;-84
2021/10/28 23:15:39;;;;;;;10.43;4.55;;;;;;;;;;5026390;28;20045;-87
2021/10/28 23:20:50;;;;;;;8.98;3.38;;;;;;;;;;5035465;28;20693;-87
2021/10/28 23:23:16;;;;;;;;;;;;;;;;;;5035020;28;20041;-86
2021/10/28 23:25:42;;;;;;;8.80;3.60;;;;;;;;;;5036294;28;20039;-86
2021/10/28 23:28:09;;;;;;;9.98;3.38;;;;;;;;;;5033492;28;20044;-87
2021/10/28 23:30:35;;;;;;;12.65;4.13;;;;;;;;;;5044521;28;20166;-88
2021/10/28 23:33:03;;;;;;;9.32;3.55;;;;;;;;;;5034999;28;20622;-88
2021/10/28 23:35:29;;;;;;;10.55;3.80;;;;;;;;;;5031873;28;20508;-85
2021/10/28 23:37:56;;;;;;;9.18;3.70;;;;;;;;;;5027070;28;20033;-86
2021/10/28 23:40:22;;;;;;;9.50;3.90;;;;;;;;;;5034217;28;20017;-86
2021/10/28 23:42:49;;;;;;;12.48;3.88;;;;;;;;;;5022364;28;20682;-87
2021/10/28 23:45:15;;;;;;;10.63;3.80;;;;;;;;;;5033120;28;20047;-86
2021/10/28 23:47:41;;;;;;;10.00;3.63;;;;;;;;;;5029485;28;20085;-85
2021/10/28 23:50:08;;;;;;;10.63;3.88;;;;;;;;;;5030992;28;20033;-86
2021/10/28 23:52:34;;;;;;;10.30;3.78;;;;;;;;;;5030947;28;20025;-86
2021/10/28 23:55:01;;;;;;;8.05;3.25;;;;;;;;;;5028763;28;21041;-86
2021/10/28 23:57:28;;;;;;;8.73;3.33;;;;;;;;;;5030840;28;20848;-85
2021/10/28 23:59:54;;;;;;;9.02;3.33;;;;;;;;;;5032693;28;20859;-86
